Time;durP1;ratioP1;P1;durP2;ratioP2;P2;SDS_P1;SDS_P2;PMS_P1;PMS_P2;Temp;Humidity;BMP_temperature;BMP_pressure;BME280_temperature;BME280_humidity;BME280_pressure;Samples;Min_cycle;Max_cycle;Signal;HPM_P1;HPM_P2
2022/06/08 00:01:37;;;;;;;1.47;0.77;;;14.40;99.90;;;;;;5073732;28;20260;-67
2022/06/08 00:04:06;;;;;;;0.50;0.40;;;14.40;99.90;;;;;;5091640;28;20187;-66
2022/06/08 00:06:34;;;;;;;1.37;0.50;;;14.30;99.90;;;;;;5090537;28;20222;-66
2022/06/08 00:09:01;;;;;;;0.67;0.60;;;14.20;99.90;;;;;;5073886;28;20190;-67
2022/06/08 00:11:29;;;;;;;0.67;0.47;;;14.20;99.90;;;;;;5092282;28;20266;-67
2022/06/08 00:13:56;;;;;;;3.27;0.40;;;14.30;99.90;;;;;;5091407;28;20179;-67
2022/06/08 00:16:24;;;;;;;0.50;0.50;;;14.60;99.90;;;;;;5092105;28;20209;-67
2022/06/08 00:18:51;;;;;;;0.40;0.40;;;14.90;99.90;;;;;;5083572;28;20214;-68
2022/06/08 00:21:19;;;;;;;1.43;0.40;;;15.00;99.90;;;;;;5091636;28;20268;-67
2022/06/08 00:23:47;;;;;;;0.50;0.40;;;15.10;99.90;;;;;;5091509;28;20274;-67
2022/06/08 00:26:14;;;;;;;2.53;0.50;;;14.80;99.90;;;;;;5091504;28;20231;-68
2022/06/08 00:28:42;;;;;;;0.37;0.37;;;15.00;99.90;;;;;;5091870;28;20203;-67
2022/06/08 00:31:10;;;;;;;1.17;0.50;;;15.20;99.90;;;;;;5091370;28;20182;-66
2022/06/08 00:33:38;;;;;;;0.60;0.60;;;15.50;99.90;;;;;;5091163;28;20239;-67
2022/06/08 00:36:05;;;;;;;0.30;0.30;;;15.40;99.90;;;;;;5091591;28;20179;-68
2022/06/08 00:38:33;;;;;;;0.93;0.50;;;15.50;99.90;;;;;;5092034;28;20175;-67
2022/06/08 00:41:06;;;;;;;1.10;0.50;;;15.60;99.90;;;;;;5091418;28;20179;-66
2022/06/08 00:43:35;;;;;;;0.30;0.30;;;15.80;99.90;;;;;;5091466;28;20194;-67
2022/06/08 00:46:05;;;;;;;2.33;0.47;;;15.70;99.90;;;;;;5091658;28;20207;-67
2022/06/08 00:48:38;;;;;;;0.77;0.30;;;16.50;99.90;;;;;;5091503;28;20644;-68
2022/06/08 00:51:06;;;;;;;0.30;0.30;;;16.50;99.90;;;;;;5091862;28;20179;-68
2022/06/08 00:53:45;;;;;;;0.30;0.30;;;16.10;99.90;;;;;;5091248;28;20676;-67
2022/06/08 00:56:19;;;;;;;2.43;0.40;;;16.80;99.90;;;;;;5091730;28;20265;-68
2022/06/08 00:58:46;;;;;;;1.13;0.30;;;16.10;99.90;;;;;;5091841;28;20179;-67
2022/06/08 01:01:14;;;;;;;0.37;0.37;;;16.10;99.90;;;;;;5091379;28;20207;-68
2022/06/08 01:03:42;;;;;;;0.30;0.30;;;16.40;99.90;;;;;;5073384;28;20588;-67
2022/06/08 01:06:19;;;;;;;1.33;0.40;;;16.40;99.90;;;;;;5091622;28;20172;-67
2022/06/08 01:08:54;;;;;;;0.93;0.40;;;16.80;98.70;;;;;;5073366;28;20275;-67
2022/06/08 01:11:33;;;;;;;0.73;0.30;;;16.70;98.40;;;;;;5091492;28;20178;-68
2022/06/08 01:14:05;;;;;;;0.30;0.30;;;16.50;96.00;;;;;;5091412;28;20210;-68
2022/06/08 01:16:33;;;;;;;0.67;0.30;;;16.40;99.10;;;;;;5091643;28;20179;-68
2022/06/08 01:19:03;;;;;;;0.43;0.37;;;16.50;95.60;;;;;;5091617;28;20216;-67
2022/06/08 01:21:31;;;;;;;0.30;0.30;;;16.10;96.10;;;;;;5091574;28;20301;-66
2022/06/08 01:24:08;;;;;;;1.80;0.30;;;16.00;95.30;;;;;;5091299;28;20175;-66
2022/06/08 01:26:56;;;;;;;4.63;2.70;;;16.00;98.80;;;;;;5094285;28;20234;-68
2022/06/08 01:29:37;;;;;;;4.13;1.47;;;16.20;97.60;;;;;;5095263;28;20180;-66
2022/06/08 01:32:22;;;;;;;4.20;2.50;;;16.70;97.20;;;;;;5095284;28;20181;-68
2022/06/08 01:35:11;;;;;;;2.83;0.90;;;17.00;94.60;;;;;;5095106;28;20191;-67
2022/06/08 01:37:38;;;;;;;0.43;0.43;;;17.00;96.10;;;;;;5094942;28;20675;-67
2022/06/08 01:40:26;;;;;;;0.43;0.40;;;16.60;94.40;;;;;;5095032;28;20206;-68
2022/06/08 01:43:05;;;;;;;0.30;0.30;;;16.70;93.90;;;;;;5094734;28;20260;-67
2022/06/08 01:45:42;;;;;;;0.40;0.40;;;17.40;92.80;;;;;;5094155;28;20286;-66
2022/06/08 01:48:19;;;;;;;0.80;0.60;;;17.50;91.50;;;;;;5093942;28;20250;-67
2022/06/08 01:51:18;;;;;;;1.93;0.70;;;17.50;91.40;;;;;;5094556;28;20177;-67
2022/06/08 01:53:58;;;;;;;3.13;2.93;;;17.10;91.20;;;;;;5089019;28;20186;-67
2022/06/08 01:56:46;;;;;;;2.40;2.20;;;17.40;91.20;;;;;;5082268;28;20558;-67
2022/06/08 01:59:25;;;;;;;3.73;3.43;;;17.40;87.00;;;;;;5062871;28;20301;-68
2022/06/08 02:02:09;;;;;;;1.73;1.17;;;17.40;88.00;;;;;;5056120;28;20188;-67
2022/06/08 02:04:52;;;;;;;4.23;3.90;;;18.00;86.70;;;;;;5074188;28;20727;-67
2022/06/08 02:07:59;;;;;;;3.27;1.10;;;17.80;83.20;;;;;;5077592;28;20225;-68
2022/06/08 02:10:33;;;;;;;0.83;0.50;;;17.90;83.20;;;;;;5038962;28;20183;-66
2022/06/08 02:13:26;;;;;;;2.33;1.40;;;18.10;82.20;;;;;;5094290;28;20656;-66
2022/06/08 02:16:00;;;;;;;1.77;1.23;;;17.50;80.60;;;;;;5076299;28;20652;-67
2022/06/08 02:18:33;;;;;;;0.83;0.43;;;17.80;80.10;;;;;;5076041;28;20526;-67
2022/06/08 02:21:16;;;;;;;1.60;0.57;;;17.50;83.20;;;;;;5093884;28;20278;-68
2022/06/08 02:23:48;;;;;;;4.40;3.23;;;17.90;82.70;;;;;;5094219;28;20179;-66
2022/06/08 02:26:38;;;;;;;1.10;0.50;;;18.30;85.40;;;;;;5055579;28;20763;-66
2022/06/08 02:29:20;;;;;;;0.63;0.60;;;17.50;83.20;;;;;;5083922;28;20179;-67
2022/06/08 02:31:56;;;;;;;0.40;0.40;;;17.80;81.40;;;;;;5093150;28;20236;-67
2022/06/08 02:34:43;;;;;;;1.03;0.60;;;18.20;76.50;;;;;;5085422;28;20177;-67
2022/06/08 02:37:25;;;;;;;2.20;0.40;;;18.30;79.20;;;;;;5074377;28;20187;-67
2022/06/08 02:40:21;;;;;;;1.53;0.70;;;18.50;73.50;;;;;;5087157;28;20179;-67
2022/06/08 02:42:58;;;;;;;0.43;0.40;;;17.90;71.00;;;;;;5089631;28;20669;-66
2022/06/08 02:45:37;;;;;;;0.63;0.50;;;18.60;72.30;;;;;;5093428;28;20178;-67
2022/06/08 02:48:09;;;;;;;2.60;0.50;;;18.60;70.10;;;;;;5093141;28;20253;-67
2022/06/08 02:50:46;;;;;;;0.30;0.30;;;17.90;70.40;;;;;;5093497;28;20276;-67
2022/06/08 02:53:20;;;;;;;0.77;0.40;;;17.90;70.60;;;;;;5093533;28;20186;-67
2022/06/08 02:55:53;;;;;;;1.67;0.60;;;18.30;69.30;;;;;;5093250;28;20191;-67
2022/06/08 02:58:44;;;;;;;0.87;0.37;;;18.40;71.50;;;;;;5093546;28;20189;-66
2022/06/08 03:01:42;;;;;;;0.73;0.50;;;18.50;68.80;;;;;;5093475;28;20381;-66
2022/06/08 03:04:37;;;;;;;0.30;0.30;;;18.00;71.80;;;;;;5089355;28;20276;-67
2022/06/08 03:07:27;;;;;;;1.90;0.50;;;18.00;71.20;;;;;;5063291;28;20215;-68
2022/06/08 03:09:56;;;;;;;1.13;0.50;;;18.80;71.30;;;;;;5093213;28;20186;-67
2022/06/08 03:12:39;;;;;;;1.03;0.40;;;18.20;67.60;;;;;;5074712;28;20195;-67
2022/06/08 03:15:10;;;;;;;0.93;0.47;;;18.20;68.40;;;;;;5074571;28;20584;-67
2022/06/08 03:17:39;;;;;;;0.67;0.60;;;18.00;70.90;;;;;;5093054;28;20220;-66
2022/06/08 03:20:09;;;;;;;6.57;0.67;;;18.40;68.80;;;;;;5075073;28;20224;-68
2022/06/08 03:22:38;;;;;;;0.40;0.40;;;18.70;66.40;;;;;;5093113;28;20175;-67
2022/06/08 03:25:06;;;;;;;1.50;0.33;;;19.20;67.00;;;;;;5089126;28;20189;-68
2022/06/08 03:27:37;;;;;;;0.30;0.30;;;19.10;64.70;;;;;;5092901;28;20211;-67
2022/06/08 03:30:08;;;;;;;1.77;0.53;;;18.70;66.70;;;;;;5092632;28;20220;-68
2022/06/08 03:32:36;;;;;;;0.53;0.30;;;18.40;66.20;;;;;;5092766;28;20183;-67
2022/06/08 03:35:03;;;;;;;2.20;0.40;;;18.10;66.30;;;;;;5092646;28;20521;-67
2022/06/08 03:37:31;;;;;;;0.40;0.40;;;17.90;65.40;;;;;;5092926;28;20198;-67
2022/06/08 03:39:58;;;;;;;1.50;0.50;;;18.40;67.40;;;;;;5074302;28;20190;-67
2022/06/08 03:42:26;;;;;;;1.17;0.50;;;18.40;65.50;;;;;;5092594;28;20556;-66
2022/06/08 03:44:54;;;;;;;2.53;0.50;;;18.70;64.40;;;;;;5091770;28;20183;-67
2022/06/08 03:47:26;;;;;;;4.57;0.50;;;18.70;66.10;;;;;;5091830;28;20586;-67
2022/06/08 03:49:58;;;;;;;1.57;0.50;;;18.60;66.70;;;;;;5092320;28;20222;-67
2022/06/08 03:52:29;;;;;;;6.77;0.80;;;19.30;65.30;;;;;;5092386;28;20188;-67
2022/06/08 03:55:02;;;;;;;3.20;0.57;;;19.10;62.90;;;;;;5092073;28;20191;-67
2022/06/08 03:57:31;;;;;;;1.93;0.50;;;19.00;65.50;;;;;;5092241;28;20187;-67
2022/06/08 04:00:01;;;;;;;3.23;0.87;;;18.80;64.50;;;;;;5091128;28;20191;-67
2022/06/08 04:02:29;;;;;;;0.67;0.30;;;18.90;66.40;;;;;;5092339;28;20194;-67
2022/06/08 04:04:57;;;;;;;1.03;0.47;;;18.50;65.10;;;;;;5092049;28;20175;-66
2022/06/08 04:07:24;;;;;;;2.47;0.73;;;18.60;64.20;;;;;;5073097;28;20207;-67
2022/06/08 04:09:51;;;;;;;0.40;0.40;;;18.20;63.60;;;;;;5090631;28;20183;-67
2022/06/08 04:12:22;;;;;;;0.80;0.50;;;18.40;66.50;;;;;;5073878;28;20272;-67
2022/06/08 04:14:51;;;;;;;0.70;0.30;;;18.40;63.10;;;;;;5091969;28;20207;-66
2022/06/08 04:17:19;;;;;;;1.93;0.50;;;18.00;63.30;;;;;;5053821;28;20186;-67
2022/06/08 04:19:50;;;;;;;1.53;0.60;;;18.10;64.30;;;;;;5083769;28;20171;-67
2022/06/08 04:22:19;;;;;;;0.60;0.40;;;17.90;65.90;;;;;;5073711;28;20598;-67
2022/06/08 04:24:47;;;;;;;0.57;0.33;;;17.70;62.70;;;;;;5091919;28;20167;-66
2022/06/08 04:27:15;;;;;;;0.60;0.40;;;18.00;67.40;;;;;;5073361;28;20313;-67
2022/06/08 04:29:43;;;;;;;0.60;0.60;;;18.20;65.90;;;;;;5073395;28;20638;-67
2022/06/08 04:32:12;;;;;;;0.87;0.50;;;18.20;66.90;;;;;;5091744;28;20212;-67
2022/06/08 04:34:42;;;;;;;0.33;0.33;;;17.40;64.20;;;;;;5091799;28;20666;-67
2022/06/08 04:37:10;;;;;;;2.87;0.63;;;17.50;68.90;;;;;;5091563;28;20218;-69
2022/06/08 04:39:37;;;;;;;2.43;0.50;;;17.50;66.40;;;;;;5091362;28;20238;-67
2022/06/08 04:42:05;;;;;;;3.57;0.77;;;17.90;66.50;;;;;;5091637;28;20707;-66
2022/06/08 04:44:33;;;;;;;2.27;0.50;;;18.00;66.50;;;;;;5091567;28;20175;-68
2022/06/08 04:47:01;;;;;;;0.83;0.60;;;18.10;68.10;;;;;;5091340;28;20203;-67
2022/06/08 04:49:28;;;;;;;0.93;0.50;;;18.10;63.80;;;;;;5091465;28;20179;-66
2022/06/08 04:51:55;;;;;;;2.33;0.37;;;17.70;62.60;;;;;;5091413;28;20183;-66
2022/06/08 04:54:23;;;;;;;0.97;0.40;;;17.80;64.50;;;;;;5091434;28;20274;-67
2022/06/08 04:56:51;;;;;;;2.13;0.63;;;17.90;64.50;;;;;;5091497;28;20645;-66
2022/06/08 04:59:19;;;;;;;1.87;0.67;;;17.80;65.70;;;;;;5092417;28;20190;-68
2022/06/08 05:01:46;;;;;;;0.93;0.40;;;17.50;65.20;;;;;;5095609;28;20167;-67
2022/06/08 05:04:14;;;;;;;0.97;0.40;;;17.50;66.80;;;;;;5095697;28;20339;-68
2022/06/08 05:06:41;;;;;;;4.73;0.60;;;17.60;65.10;;;;;;5095374;28;20648;-67
2022/06/08 05:09:08;;;;;;;1.20;0.73;;;17.40;65.00;;;;;;5095326;28;20669;-68
2022/06/08 05:11:36;;;;;;;1.27;0.50;;;17.50;66.70;;;;;;5095491;28;20219;-66
2022/06/08 05:14:03;;;;;;;0.87;0.60;;;17.50;66.90;;;;;;5095404;28;20171;-67
2022/06/08 05:16:30;;;;;;;1.30;0.50;;;17.10;64.90;;;;;;5077106;28;20186;-66
2022/06/08 05:18:58;;;;;;;1.03;0.57;;;17.00;64.70;;;;;;5094912;28;20183;-67
2022/06/08 05:21:25;;;;;;;1.27;0.80;;;16.90;65.80;;;;;;5094956;28;20224;-66
2022/06/08 05:23:53;;;;;;;0.50;0.50;;;16.60;66.10;;;;;;5094836;28;20184;-68
2022/06/08 05:26:20;;;;;;;1.23;0.70;;;16.50;68.20;;;;;;5074622;28;20223;-67
2022/06/08 05:28:49;;;;;;;1.13;0.60;;;15.90;72.40;;;;;;5091147;28;20179;-68
2022/06/08 05:31:17;;;;;;;3.47;0.70;;;15.90;76.60;;;;;;5095252;28;20229;-65
2022/06/08 05:33:45;;;;;;;1.77;0.40;;;15.30;78.80;;;;;;5076320;28;20207;-67
2022/06/08 05:36:12;;;;;;;3.90;0.60;;;15.10;78.10;;;;;;5095925;28;20666;-67
2022/06/08 05:38:39;;;;;;;1.70;0.60;;;15.00;78.70;;;;;;5095482;28;20193;-66
2022/06/08 05:41:07;;;;;;;0.73;0.57;;;14.80;78.00;;;;;;5095895;28;20175;-67
2022/06/08 05:43:34;;;;;;;2.60;0.77;;;14.70;77.90;;;;;;5076396;28;20182;-66
2022/06/08 05:46:02;;;;;;;0.43;0.43;;;14.60;79.00;;;;;;5095654;28;20278;-66
2022/06/08 05:48:29;;;;;;;1.97;0.70;;;14.50;82.10;;;;;;5096004;28;20218;-66
2022/06/08 05:50:56;;;;;;;1.00;0.90;;;14.40;84.20;;;;;;5095871;28;20181;-66
2022/06/08 05:53:24;;;;;;;2.97;1.10;;;14.40;83.20;;;;;;5077344;28;20226;-66
2022/06/08 05:55:51;;;;;;;3.07;2.00;;;14.30;84.70;;;;;;5095915;28;20267;-66
2022/06/08 05:58:19;;;;;;;2.17;1.07;;;14.30;87.20;;;;;;5077305;28;20182;-67
2022/06/08 06:00:46;;;;;;;1.03;0.70;;;14.30;88.90;;;;;;5095489;28;20524;-68
2022/06/08 06:03:13;;;;;;;1.70;0.80;;;14.20;90.50;;;;;;5094892;28;20194;-67
2022/06/08 06:05:42;;;;;;;1.30;0.60;;;14.20;91.40;;;;;;5076868;28;20623;-66
2022/06/08 06:08:10;;;;;;;0.77;0.67;;;14.20;91.80;;;;;;5095264;28;20343;-67
2022/06/08 06:10:40;;;;;;;1.07;0.60;;;14.00;90.40;;;;;;5094547;28;20264;-67
2022/06/08 06:13:08;;;;;;;1.63;0.60;;;13.90;91.90;;;;;;5094951;28;20201;-67
2022/06/08 06:15:37;;;;;;;1.07;0.60;;;13.90;91.70;;;;;;5093686;28;20328;-66
2022/06/08 06:18:06;;;;;;;1.40;0.50;;;13.80;92.00;;;;;;5095530;28;20182;-67
2022/06/08 06:20:34;;;;;;;1.60;0.60;;;13.80;93.00;;;;;;5095369;28;20658;-66
2022/06/08 06:23:02;;;;;;;0.77;0.63;;;13.70;94.50;;;;;;5095222;28;20178;-66
2022/06/08 06:25:29;;;;;;;1.37;0.77;;;13.60;95.70;;;;;;5094850;28;20302;-66
2022/06/08 06:27:56;;;;;;;1.93;0.80;;;13.50;96.30;;;;;;5095239;28;20220;-66
2022/06/08 06:30:24;;;;;;;1.20;1.00;;;13.50;97.90;;;;;;5095210;28;20177;-66
2022/06/08 06:32:51;;;;;;;1.40;1.00;;;13.40;97.90;;;;;;5095172;28;20693;-66
2022/06/08 06:35:29;;;;;;;1.93;1.03;;;13.30;99.90;;;;;;5095271;28;20177;-68
2022/06/08 06:37:56;;;;;;;1.80;1.10;;;13.30;99.90;;;;;;5095082;28;20179;-66
2022/06/08 06:40:24;;;;;;;2.13;1.10;;;13.20;99.90;;;;;;5094891;28;20181;-66
2022/06/08 06:42:51;;;;;;;2.80;2.23;;;13.10;99.90;;;;;;5093887;28;20256;-68
2022/06/08 06:45:19;;;;;;;3.40;1.70;;;13.10;99.90;;;;;;5094862;28;20294;-68
2022/06/08 06:47:46;;;;;;;2.70;1.20;;;12.90;99.90;;;;;;5094874;28;20205;-68
2022/06/08 06:50:16;;;;;;;2.70;0.70;;;12.90;99.90;;;;;;5094747;28;20191;-67
2022/06/08 06:52:47;;;;;;;1.63;0.90;;;12.80;99.90;;;;;;5094775;28;20225;-66
2022/06/08 06:55:28;;;;;;;2.43;0.90;;;12.70;99.90;;;;;;5094473;28;20231;-67
2022/06/08 06:57:56;;;;;;;2.33;0.97;;;12.60;99.90;;;;;;5094750;28;20180;-68
2022/06/08 07:00:25;;;;;;;1.07;0.90;;;12.50;99.90;;;;;;5094355;28;20306;-67
2022/06/08 07:02:53;;;;;;;2.70;0.80;;;12.40;99.90;;;;;;5094542;28;20205;-67
2022/06/08 07:05:27;;;;;;;1.63;1.13;;;12.30;99.90;;;;;;5094359;28;20173;-68
2022/06/08 07:07:54;;;;;;;2.07;1.17;;;12.20;99.90;;;;;;5094353;28;20315;-67
2022/06/08 07:10:22;;;;;;;0.70;0.70;;;12.20;99.90;;;;;;5094311;28;20181;-67
2022/06/08 07:12:50;;;;;;;0.83;0.80;;;12.20;99.90;;;;;;5094243;28;20178;-66
2022/06/08 07:15:20;;;;;;;2.97;0.83;;;12.10;99.90;;;;;;5076002;28;20185;-68
2022/06/08 07:17:47;;;;;;;3.73;1.20;;;12.10;99.90;;;;;;5094152;28;20169;-67
2022/06/08 07:20:15;;;;;;;2.10;1.20;;;12.10;99.90;;;;;;5094381;28;20191;-66
2022/06/08 07:22:43;;;;;;;1.77;1.37;;;11.90;99.90;;;;;;5094105;28;20176;-66
2022/06/08 07:25:12;;;;;;;2.00;1.27;;;11.80;99.90;;;;;;5093739;28;20230;-66
2022/06/08 07:27:40;;;;;;;1.23;1.00;;;11.70;99.90;;;;;;5094302;28;20212;-66
2022/06/08 07:30:09;;;;;;;2.40;1.50;;;11.60;99.90;;;;;;5094159;28;20299;-67
2022/06/08 07:32:37;;;;;;;4.00;1.47;;;11.60;99.90;;;;;;5094111;28;20198;-67
2022/06/08 07:35:07;;;;;;;1.93;1.17;;;11.50;99.90;;;;;;5094190;28;20171;-67
2022/06/08 07:37:34;;;;;;;1.23;0.90;;;11.50;99.90;;;;;;5094084;28;20180;-67
2022/06/08 07:40:02;;;;;;;2.37;1.17;;;11.40;99.90;;;;;;5093752;28;20176;-66
2022/06/08 07:42:29;;;;;;;3.97;1.27;;;11.40;99.90;;;;;;5093718;28;20595;-67
2022/06/08 07:44:56;;;;;;;3.67;1.40;;;11.30;99.90;;;;;;5093686;28;20180;-65
2022/06/08 07:47:24;;;;;;;1.13;1.03;;;11.20;99.90;;;;;;5093535;28;20240;-66
2022/06/08 07:49:51;;;;;;;6.60;1.13;;;11.10;99.90;;;;;;5094051;28;20164;-67
2022/06/08 07:52:21;;;;;;;2.00;0.93;;;11.10;99.90;;;;;;5093631;28;20175;-66
2022/06/08 07:54:50;;;;;;;2.20;1.43;;;11.10;99.90;;;;;;5093653;28;20183;-66
2022/06/08 07:57:25;;;;;;;2.73;1.00;;;11.00;99.90;;;;;;5093504;28;20232;-66
2022/06/08 07:59:53;;;;;;;4.00;1.20;;;11.00;99.90;;;;;;5093660;28;20284;-67
2022/06/08 08:02:21;;;;;;;2.23;1.30;;;11.00;99.90;;;;;;5093468;28;20179;-66
2022/06/08 08:04:48;;;;;;;2.27;1.67;;;10.80;99.90;;;;;;5093247;28;20183;-67
2022/06/08 08:07:16;;;;;;;3.00;1.30;;;10.80;99.90;;;;;;5093275;28;20228;-68
2022/06/08 08:09:43;;;;;;;1.83;1.40;;;10.70;99.90;;;;;;5093376;28;20533;-67
2022/06/08 08:12:12;;;;;;;1.30;1.20;;;10.70;99.90;;;;;;5093229;28;20180;-66
2022/06/08 08:14:40;;;;;;;1.50;1.20;;;10.70;99.90;;;;;;5093443;28;20180;-66
2022/06/08 08:17:08;;;;;;;3.33;1.73;;;10.70;99.90;;;;;;5093331;28;20261;-67
2022/06/08 08:19:38;;;;;;;4.20;1.40;;;10.70;99.90;;;;;;5092998;28;20181;-67
2022/06/08 08:22:06;;;;;;;0.90;0.80;;;10.60;99.90;;;;;;5093132;28;20175;-67
2022/06/08 08:24:34;;;;;;;1.23;1.13;;;10.70;99.90;;;;;;5093036;28;20182;-69
2022/06/08 08:27:02;;;;;;;2.43;0.90;;;10.60;99.90;;;;;;5092781;28;20228;-67
2022/06/08 08:29:30;;;;;;;3.53;0.80;;;10.70;99.90;;;;;;5093112;28;20233;-67
2022/06/08 08:31:57;;;;;;;1.30;0.80;;;10.70;99.90;;;;;;5093079;28;20637;-67
2022/06/08 08:34:25;;;;;;;1.47;1.00;;;10.70;99.90;;;;;;5092553;28;20184;-66
2022/06/08 08:36:53;;;;;;;1.37;0.90;;;10.70;99.90;;;;;;5093060;28;20176;-66
2022/06/08 08:39:20;;;;;;;1.23;0.93;;;10.70;99.90;;;;;;5092906;28;20641;-66
2022/06/08 08:44:38;;;;;;;3.23;1.10;;;10.70;99.90;;;;;;5093300;28;20543;-67
2022/06/08 08:47:30;;;;;;;2.27;0.90;;;10.70;99.90;;;;;;5092760;28;20210;-67
2022/06/08 08:50:17;;;;;;;3.63;1.00;;;10.60;99.90;;;;;;5093555;28;20184;-67
2022/06/08 08:52:52;;;;;;;1.17;0.90;;;10.70;99.90;;;;;;5093029;28;20262;-68
2022/06/08 08:55:32;;;;;;;2.20;0.90;;;10.60;99.90;;;;;;5074863;28;20175;-67
2022/06/08 08:58:10;;;;;;;2.50;0.87;;;10.60;99.90;;;;;;5074832;28;20202;-65
2022/06/08 09:00:42;;;;;;;3.63;1.03;;;10.50;99.90;;;;;;5092998;28;20179;-67
2022/06/08 09:03:25;;;;;;;2.10;1.00;;;10.50;99.90;;;;;;5092750;28;20177;-67
2022/06/08 09:05:59;;;;;;;4.20;1.13;;;10.50;99.90;;;;;;5092736;28;20526;-66
2022/06/08 09:08:27;;;;;;;4.73;1.07;;;10.50;99.90;;;;;;5093211;28;20214;-67
2022/06/08 09:10:59;;;;;;;3.70;1.30;;;10.40;99.90;;;;;;5092501;28;20195;-67
2022/06/08 09:13:50;;;;;;;1.40;1.20;;;10.30;99.90;;;;;;5092672;28;20181;-66
2022/06/08 09:16:39;;;;;;;2.43;1.10;;;10.20;99.90;;;;;;5092904;28;20236;-67
2022/06/08 09:19:41;;;;;;;1.47;1.37;;;10.20;99.90;;;;;;5092721;28;20669;-66
2022/06/08 09:22:08;;;;;;;4.77;1.60;;;10.10;99.90;;;;;;5075702;28;20214;-66
2022/06/08 09:25:13;;;;;;;2.63;1.90;;;10.00;99.90;;;;;;5092727;28;20516;-66
2022/06/08 09:27:56;;;;;;;2.47;1.70;;;9.90;99.90;;;;;;5092898;28;20765;-67
2022/06/08 09:30:27;;;;;;;3.53;1.73;;;9.80;99.90;;;;;;5092761;28;20758;-66
2022/06/08 09:33:24;;;;;;;1.63;1.37;;;9.70;99.90;;;;;;5092530;28;20258;-66
2022/06/08 09:35:56;;;;;;;2.63;1.60;;;9.60;99.90;;;;;;5092812;28;20178;-66
2022/06/08 09:38:28;;;;;;;3.20;1.50;;;9.40;99.90;;;;;;5092554;28;20176;-67
2022/06/08 09:41:16;;;;;;;2.60;1.80;;;9.30;99.90;;;;;;5092343;28;20187;-67
2022/06/08 09:44:18;;;;;;;4.80;2.30;;;9.10;99.90;;;;;;5074411;28;20531;-67
2022/06/08 09:52:55;;;;;;;4.73;1.90;;;8.70;99.90;;;;;;5096248;28;20214;-65
2022/06/08 09:55:24;;;;;;;2.97;1.70;;;8.50;99.90;;;;;;5095856;28;20186;-65
2022/06/08 09:58:03;;;;;;;6.33;5.10;;;8.40;99.90;;;;;;5095999;28;20204;-67
2022/06/08 10:00:33;;;;;;;7.20;3.67;;;8.30;99.90;;;;;;5095894;28;20182;-65
2022/06/08 10:03:18;;;;;;;3.30;3.00;;;8.20;99.90;;;;;;5095762;28;20648;-65
2022/06/08 10:06:04;;;;;;;3.10;2.47;;;8.10;99.90;;;;;;5095546;28;20176;-66
2022/06/08 10:08:55;;;;;;;3.33;1.60;;;8.00;99.90;;;;;;5095674;28;20377;-66
2022/06/08 10:11:39;;;;;;;3.27;1.63;;;8.20;99.90;;;;;;5095780;28;20181;-66
2022/06/08 10:14:23;;;;;;;2.40;1.70;;;8.20;99.90;;;;;;5095748;28;20201;-67
2022/06/08 10:16:58;;;;;;;2.07;1.50;;;8.30;99.90;;;;;;5095437;28;20609;-67
2022/06/08 10:19:34;;;;;;;2.30;1.77;;;8.40;99.90;;;;;;5077526;28;20194;-65
2022/06/08 10:22:04;;;;;;;2.67;1.90;;;8.40;99.90;;;;;;5095230;28;20263;-66
2022/06/08 10:24:53;;;;;;;3.13;2.20;;;8.40;99.90;;;;;;5095416;28;20181;-65
2022/06/08 10:27:33;;;;;;;3.87;2.40;;;8.40;99.90;;;;;;5055139;28;20275;-65
2022/06/08 10:30:19;;;;;;;3.87;2.30;;;8.30;99.90;;;;;;5052874;28;20185;-64
2022/06/08 10:33:02;;;;;;;4.23;2.57;;;8.10;99.90;;;;;;5054289;28;20184;-65
2022/06/08 10:35:42;;;;;;;3.47;2.73;;;7.90;99.90;;;;;;5054652;28;20180;-66
2022/06/08 10:38:22;;;;;;;6.33;3.73;;;7.80;99.90;;;;;;5054526;28;20180;-65
2022/06/08 10:41:02;;;;;;;7.50;4.23;;;7.80;99.90;;;;;;5054528;28;20186;-66
2022/06/08 10:43:32;;;;;;;7.87;4.30;;;7.80;99.90;;;;;;5054712;28;20542;-66
2022/06/08 10:46:03;;;;;;;6.30;3.30;;;7.70;99.90;;;;;;5054840;28;20290;-65
2022/06/08 10:48:42;;;;;;;5.70;2.83;;;7.40;99.90;;;;;;5054625;28;20215;-65
2022/06/08 10:51:12;;;;;;;7.50;3.60;;;7.20;99.90;;;;;;5054160;28;20183;-64
2022/06/08 10:56:32;;;;;;;7.17;3.67;;;6.80;99.90;;;;;;5051585;28;20195;-65
2022/06/08 10:59:09;;;;;;;6.67;3.57;;;6.70;99.90;;;;;;5053670;28;20239;-65
2022/06/08 11:02:11;;;;;;;5.63;3.10;;;6.60;99.90;;;;;;5051550;28;20186;-66
2022/06/08 11:04:46;;;;;;;7.87;3.60;;;6.40;99.90;;;;;;5009012;28;20194;-65
2022/06/08 11:07:17;;;;;;;6.53;3.17;;;6.40;99.90;;;;;;5053908;28;20213;-66
2022/06/08 11:09:54;;;;;;;5.13;2.97;;;6.30;99.90;;;;;;5054412;28;20184;-66
2022/06/08 11:12:50;;;;;;;5.17;3.37;;;6.20;99.90;;;;;;5053020;28;20211;-65
2022/06/08 11:15:42;;;;;;;5.67;3.30;;;6.20;99.90;;;;;;5054184;28;20234;-64
2022/06/08 11:18:31;;;;;;;6.00;3.70;;;6.10;99.90;;;;;;5054246;28;20180;-65
2022/06/08 11:21:38;;;;;;;5.77;3.60;;;6.10;99.90;;;;;;5054006;28;20172;-67
2022/06/08 11:24:26;;;;;;;7.33;3.63;;;6.00;99.90;;;;;;5043757;28;20559;-66
2022/06/08 11:27:23;;;;;;;5.77;3.43;;;5.90;99.90;;;;;;5088051;28;20258;-65
2022/06/08 11:30:07;;;;;;;6.47;3.53;;;5.90;99.90;;;;;;5084826;28;20183;-65
2022/06/08 11:32:34;;;;;;;6.00;3.50;;;5.80;99.90;;;;;;5085206;28;20227;-66
2022/06/08 11:35:05;;;;;;;6.23;3.10;;;5.80;99.90;;;;;;5093887;28;20175;-66
2022/06/08 11:37:51;;;;;;;5.90;3.30;;;5.80;99.90;;;;;;5075590;28;20179;-65
2022/06/08 11:40:25;;;;;;;7.80;3.60;;;5.70;99.90;;;;;;5094207;28;20171;-65
2022/06/08 11:43:15;;;;;;;6.27;3.00;;;5.70;99.90;;;;;;5093935;28;20215;-65
2022/06/08 11:45:47;;;;;;;4.23;2.90;;;5.60;99.90;;;;;;5093442;28;20175;-65
2022/06/08 11:48:30;;;;;;;9.93;3.87;;;5.60;99.90;;;;;;5075430;28;20218;-65
2022/06/08 11:51:01;;;;;;;6.37;3.20;;;5.60;99.90;;;;;;5094033;28;20179;-65
2022/06/08 11:53:32;;;;;;;6.97;3.60;;;5.60;99.90;;;;;;5087422;28;20563;-65
2022/06/08 11:56:32;;;;;;;6.40;3.47;;;5.60;99.90;;;;;;5094047;28;20274;-65
2022/06/08 11:59:03;;;;;;;5.60;4.07;;;5.60;99.90;;;;;;5093678;28;20183;-66
2022/06/08 12:01:42;;;;;;;7.07;3.30;;;5.60;99.90;;;;;;5093454;28;20543;-67
2022/06/08 12:04:25;;;;;;;6.10;3.97;;;5.50;99.90;;;;;;5093616;28;20178;-66
2022/06/08 12:06:56;;;;;;;9.13;3.80;;;5.40;99.90;;;;;;5093600;28;20202;-65
2022/06/08 12:09:34;;;;;;;7.03;3.97;;;5.40;99.90;;;;;;5092692;28;20186;-66
2022/06/08 12:12:11;;;;;;;8.03;4.13;;;5.40;99.90;;;;;;5093207;28;20181;-66
2022/06/08 12:14:40;;;;;;;6.20;3.47;;;5.30;99.90;;;;;;5093302;28;20186;-67
2022/06/08 12:17:38;;;;;;;8.70;3.97;;;5.30;99.90;;;;;;5093378;28;20171;-66
2022/06/08 12:20:37;;;;;;;7.13;3.87;;;5.20;99.90;;;;;;5066195;28;20189;-66
2022/06/08 12:23:04;;;;;;;7.97;3.40;;;5.10;99.90;;;;;;5093640;28;20199;-65
2022/06/08 12:25:33;;;;;;;5.07;3.50;;;5.10;99.90;;;;;;5092350;28;20231;-63
2022/06/08 12:28:00;;;;;;;6.67;5.10;;;5.20;99.90;;;;;;5074841;28;20326;-67
2022/06/08 12:30:52;;;;;;;10.50;4.67;;;5.40;99.90;;;;;;5092829;28;20739;-64
2022/06/08 12:33:20;;;;;;;5.80;4.00;;;5.40;99.90;;;;;;5092991;28;20191;-65
2022/06/08 12:36:09;;;;;;;6.80;4.33;;;5.40;99.90;;;;;;5092485;28;20182;-65
2022/06/08 12:39:16;;;;;;;7.47;4.57;;;5.50;99.90;;;;;;5074908;28;20183;-64
2022/06/08 12:41:54;;;;;;;7.47;3.93;;;5.50;99.90;;;;;;5010738;28;20215;-64
2022/06/08 12:44:28;;;;;;;7.33;4.23;;;5.40;99.90;;;;;;5011261;28;20264;-66
2022/06/08 12:47:01;;;;;;;10.13;4.60;;;5.30;99.90;;;;;;5043869;28;20266;-66
2022/06/08 12:49:51;;;;;;;6.87;3.80;;;5.30;99.90;;;;;;5088813;28;20258;-64
2022/06/08 12:52:25;;;;;;;6.40;4.63;;;5.10;99.90;;;;;;5092877;28;20263;-64
2022/06/08 12:54:52;;;;;;;11.63;6.53;;;5.00;99.90;;;;;;5092841;28;20214;-64
2022/06/08 12:57:31;;;;;;;6.43;5.00;;;5.00;99.90;;;;;;5092628;28;20184;-65
2022/06/08 13:00:01;;;;;;;13.43;9.53;;;4.80;99.90;;;;;;5092917;28;20667;-65
2022/06/08 13:02:37;;;;;;;9.83;8.60;;;4.80;99.90;;;;;;5092818;28;20518;-65
2022/06/08 13:05:16;;;;;;;9.37;4.53;;;4.80;99.90;;;;;;5092397;28;20182;-65
2022/06/08 13:07:44;;;;;;;7.83;4.23;;;4.80;99.90;;;;;;5072759;28;20218;-65
2022/06/08 13:10:12;;;;;;;7.87;3.90;;;4.90;99.90;;;;;;5072637;28;20209;-65
2022/06/08 13:12:53;;;;;;;12.47;10.40;;;4.90;99.90;;;;;;5072639;28;20184;-65
2022/06/08 13:15:30;;;;;;;9.57;5.47;;;5.00;99.90;;;;;;5072910;28;20214;-65
2022/06/08 13:17:59;;;;;;;7.23;5.80;;;5.00;99.90;;;;;;5092385;28;20186;-65
2022/06/08 13:20:29;;;;;;;7.73;7.00;;;5.00;99.90;;;;;;5094155;28;20693;-66
2022/06/08 13:22:57;;;;;;;21.63;18.00;;;4.90;99.90;;;;;;5096613;28;20502;-65
2022/06/08 13:25:28;;;;;;;8.23;6.17;;;5.00;99.90;;;;;;5095635;28;20292;-65
2022/06/08 13:27:58;;;;;;;9.37;6.90;;;5.10;99.90;;;;;;5078128;28;20250;-64
2022/06/08 13:30:29;;;;;;;9.70;6.20;;;5.20;99.90;;;;;;5096431;28;20215;-64
2022/06/08 13:32:57;;;;;;;7.60;5.37;;;5.20;99.90;;;;;;5096203;28;20237;-65
2022/06/08 13:35:29;;;;;;;7.17;4.60;;;5.30;99.90;;;;;;5096005;28;20190;-64
2022/06/08 13:37:56;;;;;;;6.50;5.57;;;5.30;99.90;;;;;;5096383;28;20201;-64